sensor_id;sensor_type;location;lat;lon;timestamp;pressure;altitude;pressure_sealevel;temperature;humidity
69784;BME280;57054;51.978;4.498;2023-02-04T00:00:21;103358.38;;;7.74;100.00
69784;BME280;57054;51.978;4.498;2023-02-04T00:02:47;103361.00;;;7.75;100.00
69784;BME280;57054;51.978;4.498;2023-02-04T00:05:12;103354.03;;;7.76;100.00
69784;BME280;57054;51.978;4.498;2023-02-04T00:07:38;103361.88;;;7.76;100.00
69784;BME280;57054;51.978;4.498;2023-02-04T00:10:04;103361.00;;;7.75;100.00
69784;BME280;57054;51.978;4.498;2023-02-04T00:12:30;103365.31;;;7.75;100.00
69784;BME280;57054;51.978;4.498;2023-02-04T00:14:55;103363.63;;;7.77;100.00
69784;BME280;57054;51.978;4.498;2023-02-04T00:17:21;103362.75;;;7.76;100.00
69784;BME280;57054;51.978;4.498;2023-02-04T00:19:46;103367.13;;;7.77;100.00
69784;BME280;57054;51.978;4.498;2023-02-04T00:22:12;103362.75;;;7.78;100.00
69784;BME280;57054;51.978;4.498;2023-02-04T00:24:37;103358.41;;;7.78;100.00
69784;BME280;57054;51.978;4.498;2023-02-04T00:27:03;103357.53;;;7.78;100.00
69784;BME280;57054;51.978;4.498;2023-02-04T00:29:29;103362.78;;;7.79;100.00
69784;BME280;57054;51.978;4.498;2023-02-04T00:31:55;103358.41;;;7.78;100.00
69784;BME280;57054;51.978;4.498;2023-02-04T00:34:20;103364.53;;;7.79;100.00
69784;BME280;57054;51.978;4.498;2023-02-04T00:36:46;103356.66;;;7.76;100.00
69784;BME280;57054;51.978;4.498;2023-02-04T00:39:11;103361.88;;;7.76;100.00
69784;BME280;57054;51.978;4.498;2023-02-04T00:41:37;103353.16;;;7.74;100.00
69784;BME280;57054;51.978;4.498;2023-02-04T00:44:03;103360.97;;;7.74;100.00
69784;BME280;57054;51.978;4.498;2023-02-04T00:46:28;103368.78;;;7.72;100.00
69784;BME280;57054;51.978;4.498;2023-02-04T00:48:53;103364.41;;;7.71;100.00
69784;BME280;57054;51.978;4.498;2023-02-04T00:51:19;103369.63;;;7.71;100.00
69784;BME280;57054;51.978;4.498;2023-02-04T00:53:44;103368.75;;;7.71;100.00
69784;BME280;57054;51.978;4.498;2023-02-04T00:56:10;103360.09;;;7.72;100.00
69784;BME280;57054;51.978;4.498;2023-02-04T00:58:36;103374.88;;;7.73;100.00
69784;BME280;57054;51.978;4.498;2023-02-04T01:01:01;103387.06;;;7.74;100.00
69784;BME280;57054;51.978;4.498;2023-02-04T01:03:27;103388.81;;;7.75;100.00
69784;BME280;57054;51.978;4.498;2023-02-04T01:05:52;103389.69;;;7.75;100.00
69784;BME280;57054;51.978;4.498;2023-02-04T01:08:17;103388.81;;;7.75;100.00
69784;BME280;57054;51.978;4.498;2023-02-04T01:10:43;103380.09;;;7.74;100.00
69784;BME280;57054;51.978;4.498;2023-02-04T01:13:08;103382.75;;;7.76;100.00
69784;BME280;57054;51.978;4.498;2023-02-04T01:15:34;103383.59;;;7.76;100.00
69784;BME280;57054;51.978;4.498;2023-02-04T01:17:59;103387.09;;;7.75;100.00
69784;BME280;57054;51.978;4.498;2023-02-04T01:20:25;103390.53;;;7.73;100.00
69784;BME280;57054;51.978;4.498;2023-02-04T01:22:51;103387.88;;;7.71;100.00
69784;BME280;57054;51.978;4.498;2023-02-04T01:25:16;103393.09;;;7.68;100.00
69784;BME280;57054;51.978;4.498;2023-02-04T01:27:43;103389.56;;;7.64;100.00
69784;BME280;57054;51.978;4.498;2023-02-04T01:30:10;103386.06;;;7.62;100.00
69784;BME280;57054;51.978;4.498;2023-02-04T01:32:35;103396.50;;;7.62;100.00
69784;BME280;57054;51.978;4.498;2023-02-04T01:35:01;103389.53;;;7.63;100.00
69784;BME280;57054;51.978;4.498;2023-02-04T01:37:26;103400.88;;;7.65;100.00
69784;BME280;57054;51.978;4.498;2023-02-04T01:39:51;103396.53;;;7.67;100.00
69784;BME280;57054;51.978;4.498;2023-02-04T01:42:17;103396.53;;;7.67;100.00
69784;BME280;57054;51.978;4.498;2023-02-04T01:44:42;103401.78;;;7.68;100.00
69784;BME280;57054;51.978;4.498;2023-02-04T01:47:08;103402.66;;;7.69;100.00
69784;BME280;57054;51.978;4.498;2023-02-04T01:49:34;103410.47;;;7.69;100.00
69784;BME280;57054;51.978;4.498;2023-02-04T01:52:01;103413.09;;;7.69;100.00
69784;BME280;57054;51.978;4.498;2023-02-04T01:54:27;103418.31;;;7.71;100.00
69784;BME280;57054;51.978;4.498;2023-02-04T01:56:52;103410.47;;;7.69;100.00
69784;BME280;57054;51.978;4.498;2023-02-04T01:59:20;103407.88;;;7.69;100.00
69784;BME280;57054;51.978;4.498;2023-02-04T02:01:48;103419.19;;;7.69;100.00
69784;BME280;57054;51.978;4.498;2023-02-04T02:04:21;103417.44;;;7.68;100.00
69784;BME280;57054;51.978;4.498;2023-02-04T02:06:54;103425.28;;;7.70;100.00
69784;BME280;57054;51.978;4.498;2023-02-04T02:09:22;103423.50;;;7.69;100.00
69784;BME280;57054;51.978;4.498;2023-02-04T02:11:47;103422.63;;;7.67;100.00
69784;BME280;57054;51.978;4.498;2023-02-04T02:14:13;103418.28;;;7.66;100.00
69784;BME280;57054;51.978;4.498;2023-02-04T02:16:39;103413.03;;;7.63;100.00
69784;BME280;57054;51.978;4.498;2023-02-04T02:19:06;103420.84;;;7.63;100.00
69784;BME280;57054;51.978;4.498;2023-02-04T02:21:43;103426.06;;;7.63;100.00
69784;BME280;57054;51.978;4.498;2023-02-04T02:24:29;103430.41;;;7.62;100.00
69784;BME280;57054;51.978;4.498;2023-02-04T02:26:56;103427.81;;;7.62;100.00
69784;BME280;57054;51.978;4.498;2023-02-04T02:29:24;103433.88;;;7.63;100.00
69784;BME280;57054;51.978;4.498;2023-02-04T02:31:50;103437.34;;;7.62;100.00
69784;BME280;57054;51.978;4.498;2023-02-04T02:34:16;103433.88;;;7.63;100.00
69784;BME280;57054;51.978;4.498;2023-02-04T02:36:42;103440.84;;;7.64;100.00
69784;BME280;57054;51.978;4.498;2023-02-04T02:39:08;103439.13;;;7.64;100.00
69784;BME280;57054;51.978;4.498;2023-02-04T02:41:34;103447.81;;;7.65;100.00
69784;BME280;57054;51.978;4.498;2023-02-04T02:44:00;103458.25;;;7.65;100.00
69784;BME280;57054;51.978;4.498;2023-02-04T02:46:25;103454.78;;;7.64;100.00
69784;BME280;57054;51.978;4.498;2023-02-04T02:48:51;103458.25;;;7.65;100.00
69784;BME280;57054;51.978;4.498;2023-02-04T02:51:16;103453.91;;;7.65;100.00
69784;BME280;57054;51.978;4.498;2023-02-04T02:53:42;103463.50;;;7.66;100.00
69784;BME280;57054;51.978;4.498;2023-02-04T02:56:08;103459.13;;;7.67;100.00
69784;BME280;57054;51.978;4.498;2023-02-04T02:58:34;103448.75;;;7.68;100.00
69784;BME280;57054;51.978;4.498;2023-02-04T03:01:03;103442.66;;;7.68;100.00
69784;BME280;57054;51.978;4.498;2023-02-04T03:03:34;103451.31;;;7.67;100.00
69784;BME280;57054;51.978;4.498;2023-02-04T03:08:35;103451.34;;;7.68;100.00
69784;BME280;57054;51.978;4.498;2023-02-04T03:11:00;103453.09;;;7.68;100.00
69784;BME280;57054;51.978;4.498;2023-02-04T03:13:26;103456.53;;;7.67;100.00
69784;BME280;57054;51.978;4.498;2023-02-04T03:15:52;103450.44;;;7.66;100.00
69784;BME280;57054;51.978;4.498;2023-02-04T03:18:19;103455.63;;;7.65;100.00
69784;BME280;57054;51.978;4.498;2023-02-04T03:20:45;103448.69;;;7.65;100.00
69784;BME280;57054;51.978;4.498;2023-02-04T03:23:12;103453.03;;;7.65;100.00
69784;BME280;57054;51.978;4.498;2023-02-04T03:25:38;103448.69;;;7.65;100.00
69784;BME280;57054;51.978;4.498;2023-02-04T03:28:03;103459.13;;;7.65;100.00
69784;BME280;57054;51.978;4.498;2023-02-04T03:30:29;103457.38;;;7.64;100.00
69784;BME280;57054;51.978;4.498;2023-02-04T03:32:55;103454.78;;;7.64;100.00
69784;BME280;57054;51.978;4.498;2023-02-04T03:35:21;103453.00;;;7.63;100.00
69784;BME280;57054;51.978;4.498;2023-02-04T03:37:46;103452.16;;;7.63;100.00
69784;BME280;57054;51.978;4.498;2023-02-04T03:40:12;103451.28;;;7.62;100.00
69784;BME280;57054;51.978;4.498;2023-02-04T03:42:38;103452.13;;;7.61;100.00
69784;BME280;57054;51.978;4.498;2023-02-04T03:45:03;103455.56;;;7.60;100.00
69784;BME280;57054;51.978;4.498;2023-02-04T03:47:29;103452.97;;;7.60;100.00
69784;BME280;57054;51.978;4.498;2023-02-04T03:49:54;103452.97;;;7.59;100.00
69784;BME280;57054;51.978;4.498;2023-02-04T03:52:20;103445.13;;;7.59;100.00
69784;BME280;57054;51.978;4.498;2023-02-04T03:54:45;103441.63;;;7.58;100.00
69784;BME280;57054;51.978;4.498;2023-02-04T03:57:11;103446.00;;;7.59;100.00
69784;BME280;57054;51.978;4.498;2023-02-04T03:59:36;103445.94;;;7.56;100.00
69784;BME280;57054;51.978;4.498;2023-02-04T04:02:02;103432.06;;;7.56;100.00
69784;BME280;57054;51.978;4.498;2023-02-04T04:04:27;103440.75;;;7.56;100.00
69784;BME280;57054;51.978;4.498;2023-02-04T04:06:53;103437.25;;;7.54;100.00
69784;BME280;57054;51.978;4.498;2023-02-04T04:09:18;103434.59;;;7.53;100.00
69784;BME280;57054;51.978;4.498;2023-02-04T04:11:43;103435.47;;;7.52;100.00
69784;BME280;57054;51.978;4.498;2023-02-04T04:14:09;103444.16;;;7.50;100.00
69784;BME280;57054;51.978;4.498;2023-02-04T04:16:34;103456.31;;;7.50;100.00
69784;BME280;57054;51.978;4.498;2023-02-04T04:18:59;103471.06;;;7.48;100.00
69784;BME280;57054;51.978;4.498;2023-02-04T04:21:25;103472.78;;;7.47;100.00
69784;BME280;57054;51.978;4.498;2023-02-04T04:23:50;103478.00;;;7.47;100.00
69784;BME280;57054;51.978;4.498;2023-02-04T04:26:15;103475.38;;;7.47;100.00
69784;BME280;57054;51.978;4.498;2023-02-04T04:28:41;103478.00;;;7.47;100.00
69784;BME280;57054;51.978;4.498;2023-02-04T04:31:07;103488.41;;;7.47;100.00
69784;BME280;57054;51.978;4.498;2023-02-04T04:33:32;103491.03;;;7.47;100.00
69784;BME280;57054;51.978;4.498;2023-02-04T04:35:57;103487.53;;;7.45;100.00
69784;BME280;57054;51.978;4.498;2023-02-04T04:38:23;103491.00;;;7.44;100.00
69784;BME280;57054;51.978;4.498;2023-02-04T04:40:48;103495.31;;;7.44;100.00
69784;BME280;57054;51.978;4.498;2023-02-04T04:43:14;103497.94;;;7.42;100.00
69784;BME280;57054;51.978;4.498;2023-02-04T04:45:39;103491.81;;;7.42;100.00
69784;BME280;57054;51.978;4.498;2023-02-04T04:48:04;103499.63;;;7.42;100.00
69784;BME280;57054;51.978;4.498;2023-02-04T04:50:30;103503.97;;;7.40;100.00
69784;BME280;57054;51.978;4.498;2023-02-04T04:52:55;103496.97;;;7.37;100.00
69784;BME280;57054;51.978;4.498;2023-02-04T04:55:21;103494.34;;;7.36;100.00
69784;BME280;57054;51.978;4.498;2023-02-04T04:57:46;103505.63;;;7.36;100.00
69784;BME280;57054;51.978;4.498;2023-02-04T05:00:15;103509.06;;;7.32;100.00
69784;BME280;57054;51.978;4.498;2023-02-04T05:02:41;103503.75;;;7.27;100.00
69784;BME280;57054;51.978;4.498;2023-02-04T05:05:07;103512.41;;;7.25;100.00
69784;BME280;57054;51.978;4.498;2023-02-04T05:07:33;103513.25;;;7.24;100.00
69784;BME280;57054;51.978;4.498;2023-02-04T05:09:58;103509.78;;;7.23;100.00
69784;BME280;57054;51.978;4.498;2023-02-04T05:12:24;103505.47;;;7.25;100.00
69784;BME280;57054;51.978;4.498;2023-02-04T05:14:49;103508.97;;;7.27;100.00
69784;BME280;57054;51.978;4.498;2023-02-04T05:17:14;103513.34;;;7.28;100.00
69784;BME280;57054;51.978;4.498;2023-02-04T05:19:40;103506.41;;;7.29;100.00
69784;BME280;57054;51.978;4.498;2023-02-04T05:22:05;103502.91;;;7.28;100.00
69784;BME280;57054;51.978;4.498;2023-02-04T05:24:30;103505.56;;;7.30;100.00
69784;BME280;57054;51.978;4.498;2023-02-04T05:26:56;103501.22;;;7.30;100.00
69784;BME280;57054;51.978;4.498;2023-02-04T05:29:21;103506.44;;;7.32;100.00
69784;BME280;57054;51.978;4.498;2023-02-04T05:31:46;103512.56;;;7.34;100.00
69784;BME280;57054;51.978;4.498;2023-02-04T05:34:12;103509.13;;;7.35;100.00
69784;BME280;57054;51.978;4.498;2023-02-04T05:36:37;103507.38;;;7.36;100.00
69784;BME280;57054;51.978;4.498;2023-02-04T05:39:02;103510.88;;;7.38;100.00
69784;BME280;57054;51.978;4.498;2023-02-04T05:41:28;103509.16;;;7.38;100.00
69784;BME280;57054;51.978;4.498;2023-02-04T05:43:53;103515.25;;;7.39;100.00
69784;BME280;57054;51.978;4.498;2023-02-04T05:46:18;103510.91;;;7.39;100.00
69784;BME280;57054;51.978;4.498;2023-02-04T05:48:44;103509.16;;;7.40;100.00
69784;BME280;57054;51.978;4.498;2023-02-04T05:51:09;103510.94;;;7.41;100.00
69784;BME280;57054;51.978;4.498;2023-02-04T05:53:35;103513.53;;;7.41;100.00
69784;BME280;57054;51.978;4.498;2023-02-04T05:56:00;103518.75;;;7.41;100.00
69784;BME280;57054;51.978;4.498;2023-02-04T05:58:25;103518.75;;;7.41;100.00
69784;BME280;57054;51.978;4.498;2023-02-04T06:01:00;103522.25;;;7.41;100.00
69784;BME280;57054;51.978;4.498;2023-02-04T06:03:26;103523.97;;;7.41;100.00
69784;BME280;57054;51.978;4.498;2023-02-04T06:05:51;103528.28;;;7.40;100.00
69784;BME280;57054;51.978;4.498;2023-02-04T06:08:17;103529.19;;;7.41;100.00
69784;BME280;57054;51.978;4.498;2023-02-04T06:10:43;103531.75;;;7.38;100.00
69784;BME280;57054;51.978;4.498;2023-02-04T06:13:08;103531.69;;;7.35;100.00
69784;BME280;57054;51.978;4.498;2023-02-04T06:15:33;103528.16;;;7.31;100.00
69784;BME280;57054;51.978;4.498;2023-02-04T06:17:59;103536.84;;;7.30;100.00
69784;BME280;57054;51.978;4.498;2023-02-04T06:20:24;103535.09;;;7.30;100.00
69784;BME280;57054;51.978;4.498;2023-02-04T06:22:49;103530.75;;;7.29;100.00
69784;BME280;57054;51.978;4.498;2023-02-04T06:25:19;103537.69;;;7.29;100.00
69784;BME280;57054;51.978;4.498;2023-02-04T06:27:44;103544.66;;;7.30;100.00
69784;BME280;57054;51.978;4.498;2023-02-04T06:30:11;103556.84;;;7.33;100.00
69784;BME280;57054;51.978;4.498;2023-02-04T06:32:36;103553.41;;;7.34;100.00
69784;BME280;57054;51.978;4.498;2023-02-04T06:35:02;103561.25;;;7.37;100.00
69784;BME280;57054;51.978;4.498;2023-02-04T06:37:27;103565.63;;;7.38;100.00
69784;BME280;57054;51.978;4.498;2023-02-04T06:39:53;103569.09;;;7.38;100.00
69784;BME280;57054;51.978;4.498;2023-02-04T06:42:19;103566.56;;;7.41;100.00
69784;BME280;57054;51.978;4.498;2023-02-04T06:44:45;103563.94;;;7.41;100.00
69784;BME280;57054;51.978;4.498;2023-02-04T06:47:10;103569.19;;;7.43;100.00
69784;BME280;57054;51.978;4.498;2023-02-04T06:49:35;103577.88;;;7.43;100.00
69784;BME280;57054;51.978;4.498;2023-02-04T06:52:01;103576.16;;;7.44;100.00
69784;BME280;57054;51.978;4.498;2023-02-04T06:54:26;103573.53;;;7.44;100.00
69784;BME280;57054;51.978;4.498;2023-02-04T06:56:52;103581.41;;;7.45;100.00
69784;BME280;57054;51.978;4.498;2023-02-04T06:59:17;103590.13;;;7.47;100.00
69784;BME280;57054;51.978;4.498;2023-02-04T07:01:42;103584.91;;;7.47;100.00
69784;BME280;57054;51.978;4.498;2023-02-04T07:04:08;103591.88;;;7.48;100.00
69784;BME280;57054;51.978;4.498;2023-02-04T07:06:33;103591.03;;;7.48;100.00
69784;BME280;57054;51.978;4.498;2023-02-04T07:08:58;103600.53;;;7.47;100.00
69784;BME280;57054;51.978;4.498;2023-02-04T07:11:24;103588.41;;;7.48;100.00
69784;BME280;57054;51.978;4.498;2023-02-04T07:13:49;103598.84;;;7.48;100.00
69784;BME280;57054;51.978;4.498;2023-02-04T07:16:14;103590.13;;;7.47;100.00
69784;BME280;57054;51.978;4.498;2023-02-04T07:18:40;103591.88;;;7.48;100.00
69784;BME280;57054;51.978;4.498;2023-02-04T07:21:05;103598.84;;;7.48;100.00
69784;BME280;57054;51.978;4.498;2023-02-04T07:23:31;103599.75;;;7.50;100.00
69784;BME280;57054;51.978;4.498;2023-02-04T07:25:56;103593.66;;;7.49;100.00
69784;BME280;57054;51.978;4.498;2023-02-04T07:28:24;103601.47;;;7.49;100.00
69784;BME280;57054;51.978;4.498;2023-02-04T07:30:49;103594.50;;;7.48;100.00
69784;BME280;57054;51.978;4.498;2023-02-04T07:33:15;103595.34;;;7.49;100.00
69784;BME280;57054;51.978;4.498;2023-02-04T07:35:40;103603.19;;;7.49;100.00
69784;BME280;57054;51.978;4.498;2023-02-04T07:38:06;103601.47;;;7.51;100.00
69784;BME280;57054;51.978;4.498;2023-02-04T07:40:31;103601.47;;;7.51;100.00
69784;BME280;57054;51.978;4.498;2023-02-04T07:42:56;103605.81;;;7.50;100.00
69784;BME280;57054;51.978;4.498;2023-02-04T07:45:22;103609.28;;;7.51;100.00
69784;BME280;57054;51.978;4.498;2023-02-04T07:47:47;103606.69;;;7.51;100.00
69784;BME280;57054;51.978;4.498;2023-02-04T07:50:13;103604.09;;;7.51;100.00
69784;BME280;57054;51.978;4.498;2023-02-04T07:52:38;103609.28;;;7.51;100.00
69784;BME280;57054;51.978;4.498;2023-02-04T07:55:04;103610.13;;;7.48;100.00
69784;BME280;57054;51.978;4.498;2023-02-04T07:57:30;103614.47;;;7.46;100.00
69784;BME280;57054;51.978;4.498;2023-02-04T07:59:55;103613.59;;;7.46;100.00
69784;BME280;57054;51.978;4.498;2023-02-04T08:02:21;103617.06;;;7.46;100.00
69784;BME280;57054;51.978;4.498;2023-02-04T08:04:46;103617.91;;;7.45;100.00
69784;BME280;57054;51.978;4.498;2023-02-04T08:07:12;103614.38;;;7.43;100.00
69784;BME280;57054;51.978;4.498;2023-02-04T08:09:37;103620.47;;;7.42;100.00
69784;BME280;57054;51.978;4.498;2023-02-04T08:12:03;103617.00;;;7.43;100.00
69784;BME280;57054;51.978;4.498;2023-02-04T08:14:29;103615.25;;;7.44;100.00
69784;BME280;57054;51.978;4.498;2023-02-04T08:16:54;103622.28;;;7.46;100.00
69784;BME280;57054;51.978;4.498;2023-02-04T08:19:19;103625.75;;;7.47;100.00
69784;BME280;57054;51.978;4.498;2023-02-04T08:21:46;103624.03;;;7.49;100.00
69784;BME280;57054;51.978;4.498;2023-02-04T08:24:12;103630.19;;;7.53;100.00
69784;BME280;57054;51.978;4.498;2023-02-04T08:26:42;103641.53;;;7.53;100.00
69784;BME280;57054;51.978;4.498;2023-02-04T08:29:08;103635.44;;;7.54;100.00
69784;BME280;57054;51.978;4.498;2023-02-04T08:31:34;103636.31;;;7.55;100.00
69784;BME280;57054;51.978;4.498;2023-02-04T08:34:01;103639.84;;;7.57;100.00
69784;BME280;57054;51.978;4.498;2023-02-04T08:36:26;103640.72;;;7.57;100.00
69784;BME280;57054;51.978;4.498;2023-02-04T08:38:51;103641.59;;;7.58;100.00
69784;BME280;57054;51.978;4.498;2023-02-04T08:41:17;103652.03;;;7.59;100.00
69784;BME280;57054;51.978;4.498;2023-02-04T08:43:42;103659.00;;;7.60;100.00
69784;BME280;57054;51.978;4.498;2023-02-04T08:46:08;103661.63;;;7.62;100.00
69784;BME280;57054;51.978;4.498;2023-02-04T08:48:33;103668.59;;;7.61;100.00
69784;BME280;57054;51.978;4.498;2023-02-04T08:50:58;103672.06;;;7.62;100.00
69784;BME280;57054;51.978;4.498;2023-02-04T08:53:24;103672.97;;;7.62;100.00
69784;BME280;57054;51.978;4.498;2023-02-04T08:55:49;103678.19;;;7.64;100.00
69784;BME280;57054;51.978;4.498;2023-02-04T08:58:15;103673.00;;;7.65;100.00
69784;BME280;57054;51.978;4.498;2023-02-04T09:00:40;103670.41;;;7.65;100.00
69784;BME280;57054;51.978;4.498;2023-02-04T09:03:06;103680.81;;;7.65;100.00
69784;BME280;57054;51.978;4.498;2023-02-04T09:05:31;103684.34;;;7.67;100.00
69784;BME280;57054;51.978;4.498;2023-02-04T09:07:57;103678.28;;;7.68;100.00
69784;BME280;57054;51.978;4.498;2023-02-04T09:10:22;103686.97;;;7.69;100.00
69784;BME280;57054;51.978;4.498;2023-02-04T09:12:48;103684.38;;;7.69;100.00
69784;BME280;57054;51.978;4.498;2023-02-04T09:15:13;103681.78;;;7.71;100.00
69784;BME280;57054;51.978;4.498;2023-02-04T09:17:38;103683.56;;;7.72;100.00
69784;BME280;57054;51.978;4.498;2023-02-04T09:20:04;103685.25;;;7.71;100.00
69784;BME280;57054;51.978;4.498;2023-02-04T09:22:30;103684.47;;;7.74;100.00
69784;BME280;57054;51.978;4.498;2023-02-04T09:24:56;103686.19;;;7.75;100.00
69784;BME280;57054;51.978;4.498;2023-02-04T09:27:21;103694.06;;;7.76;100.00
69784;BME280;57054;51.978;4.498;2023-02-04T09:29:47;103689.72;;;7.78;100.00
69784;BME280;57054;51.978;4.498;2023-02-04T09:32:12;103686.28;;;7.79;100.00
69784;BME280;57054;51.978;4.498;2023-02-04T09:34:37;103688.03;;;7.80;100.00
69784;BME280;57054;51.978;4.498;2023-02-04T09:37:03;103691.56;;;7.82;100.00
69784;BME280;57054;51.978;4.498;2023-02-04T09:39:28;103693.28;;;7.82;100.00
69784;BME280;57054;51.978;4.498;2023-02-04T09:41:54;103702.88;;;7.83;100.00
69784;BME280;57054;51.978;4.498;2023-02-04T09:44:21;103708.97;;;7.83;100.00
69784;BME280;57054;51.978;4.498;2023-02-04T09:46:51;103712.44;;;7.84;100.00
69784;BME280;57054;51.978;4.498;2023-02-04T09:49:18;103702.91;;;7.84;100.00
69784;BME280;57054;51.978;4.498;2023-02-04T09:51:44;103706.38;;;7.85;100.00
69784;BME280;57054;51.978;4.498;2023-02-04T09:54:13;103715.97;;;7.86;100.00
69784;BME280;57054;51.978;4.498;2023-02-04T09:56:39;103718.59;;;7.86;100.00
69784;BME280;57054;51.978;4.498;2023-02-04T09:59:10;103724.69;;;7.86;100.00
69784;BME280;57054;51.978;4.498;2023-02-04T10:01:36;103729.03;;;7.87;100.00
69784;BME280;57054;51.978;4.498;2023-02-04T10:04:01;103722.97;;;7.88;100.00
69784;BME280;57054;51.978;4.498;2023-02-04T10:06:27;103724.75;;;7.90;100.00
69784;BME280;57054;51.978;4.498;2023-02-04T10:08:53;103729.97;;;7.90;100.00
69784;BME280;57054;51.978;4.498;2023-02-04T10:11:19;103727.34;;;7.90;100.00
69784;BME280;57054;51.978;4.498;2023-02-04T10:13:48;103736.91;;;7.91;100.00
69784;BME280;57054;51.978;4.498;2023-02-04T10:16:16;103736.06;;;7.92;100.00
69784;BME280;57054;51.978;4.498;2023-02-04T10:18:43;103735.22;;;7.93;100.00
69784;BME280;57054;51.978;4.498;2023-02-04T10:21:38;103739.59;;;7.94;100.00
69784;BME280;57054;51.978;4.498;2023-02-04T10:24:10;103741.31;;;7.93;100.00
69784;BME280;57054;51.978;4.498;2023-02-04T10:26:37;103737.81;;;7.93;100.00
69784;BME280;57054;51.978;4.498;2023-02-04T10:29:05;103737.81;;;7.93;100.00
69784;BME280;57054;51.978;4.498;2023-02-04T10:31:36;103747.34;;;7.91;100.00
69784;BME280;57054;51.978;4.498;2023-02-04T10:36:35;103747.25;;;7.84;100.00
69784;BME280;57054;51.978;4.498;2023-02-04T10:39:14;103743.75;;;7.82;100.00
69784;BME280;57054;51.978;4.498;2023-02-04T10:41:53;103744.56;;;7.80;100.00
69784;BME280;57054;51.978;4.498;2023-02-04T10:49:25;103753.25;;;7.79;100.00
69784;BME280;57054;51.978;4.498;2023-02-04T10:51:51;103750.66;;;7.80;100.00
69784;BME280;57054;51.978;4.498;2023-02-04T10:54:19;103752.41;;;7.81;100.00
69784;BME280;57054;51.978;4.498;2023-02-04T10:57:20;103759.41;;;7.84;100.00
69784;BME280;57054;51.978;4.498;2023-02-04T10:59:48;103756.00;;;7.86;100.00
69784;BME280;57054;51.978;4.498;2023-02-04T11:04:59;103754.28;;;7.88;100.00
69784;BME280;57054;51.978;4.498;2023-02-04T11:07:25;103743.81;;;7.87;100.00
69784;BME280;57054;51.978;4.498;2023-02-04T11:09:50;103746.44;;;7.88;100.00
69784;BME280;57054;51.978;4.498;2023-02-04T11:12:35;103746.47;;;7.90;100.00
69784;BME280;57054;51.978;4.498;2023-02-04T11:15:01;103739.56;;;7.92;100.00
69784;BME280;57054;51.978;4.498;2023-02-04T11:17:33;103738.72;;;7.95;100.00
69784;BME280;57054;51.978;4.498;2023-02-04T11:19:59;103730.94;;;7.98;100.00
69784;BME280;57054;51.978;4.498;2023-02-04T11:22:41;103733.63;;;8.01;100.00
69784;BME280;57054;51.978;4.498;2023-02-04T11:25:32;103730.13;;;8.02;100.00
69784;BME280;57054;51.978;4.498;2023-02-04T11:27:58;103731.06;;;8.05;100.00
69784;BME280;57054;51.978;4.498;2023-02-04T11:30:30;103732.84;;;8.06;100.00
69784;BME280;57054;51.978;4.498;2023-02-04T11:33:04;103734.59;;;8.09;100.00
69784;BME280;57054;51.978;4.498;2023-02-04T11:35:30;103730.28;;;8.10;100.00
69784;BME280;57054;51.978;4.498;2023-02-04T11:37:56;103730.28;;;8.10;100.00
69784;BME280;57054;51.978;4.498;2023-02-04T11:40:23;103732.03;;;8.11;100.00
69784;BME280;57054;51.978;4.498;2023-02-04T11:42:55;103731.19;;;8.12;100.00
69784;BME280;57054;51.978;4.498;2023-02-04T11:45:27;103732.06;;;8.14;100.00
69784;BME280;57054;51.978;4.498;2023-02-04T11:47:56;103724.28;;;8.15;100.00
69784;BME280;57054;51.978;4.498;2023-02-04T11:50:26;103728.59;;;8.15;100.00
69784;BME280;57054;51.978;4.498;2023-02-04T11:52:53;103726.88;;;8.15;100.00
69784;BME280;57054;51.978;4.498;2023-02-04T11:55:19;103726.88;;;8.15;100.00
69784;BME280;57054;51.978;4.498;2023-02-04T11:57:45;103726.91;;;8.18;100.00
69784;BME280;57054;51.978;4.498;2023-02-04T12:00:19;103729.53;;;8.18;100.00
69784;BME280;57054;51.978;4.498;2023-02-04T12:02:47;103729.53;;;8.17;100.00
69784;BME280;57054;51.978;4.498;2023-02-04T12:05:18;103736.50;;;8.19;100.00
69784;BME280;57054;51.978;4.498;2023-02-04T12:07:45;103733.03;;;8.20;100.00
69784;BME280;57054;51.978;4.498;2023-02-04T12:12:51;103733.94;;;8.21;100.00
69784;BME280;57054;51.978;4.498;2023-02-04T12:15:21;103740.88;;;8.22;100.00
69784;BME280;57054;51.978;4.498;2023-02-04T12:18:19;103743.50;;;8.22;100.00
69784;BME280;57054;51.978;4.498;2023-02-04T12:20:45;103740.91;;;8.23;100.00
69784;BME280;57054;51.978;4.498;2023-02-04T12:23:10;103747.00;;;8.24;100.00
69784;BME280;57054;51.978;4.498;2023-02-04T12:25:35;103745.31;;;8.24;100.00
69784;BME280;57054;51.978;4.498;2023-02-04T12:28:01;103751.41;;;8.25;100.00
69784;BME280;57054;51.978;4.498;2023-02-04T12:30:26;103743.56;;;8.25;100.00
69784;BME280;57054;51.978;4.498;2023-02-04T12:32:52;103742.69;;;8.24;100.00
69784;BME280;57054;51.978;4.498;2023-02-04T12:35:18;103750.56;;;8.26;100.00
69784;BME280;57054;51.978;4.498;2023-02-04T12:37:43;103747.06;;;8.27;100.00
69784;BME280;57054;51.978;4.498;2023-02-04T12:40:16;103750.56;;;8.27;100.00
69784;BME280;57054;51.978;4.498;2023-02-04T12:42:43;103742.72;;;8.27;100.00
69784;BME280;57054;51.978;4.498;2023-02-04T12:45:11;103747.09;;;8.29;100.00
69784;BME280;57054;51.978;4.498;2023-02-04T12:47:36;103743.66;;;8.30;100.00
69784;BME280;57054;51.978;4.498;2023-02-04T12:50:04;103743.66;;;8.30;100.00
69784;BME280;57054;51.978;4.498;2023-02-04T12:52:29;103741.91;;;8.30;100.00
69784;BME280;57054;51.978;4.498;2023-02-04T12:54:55;103742.78;;;8.31;100.00
69784;BME280;57054;51.978;4.498;2023-02-04T12:57:20;103742.78;;;8.31;100.00
69784;BME280;57054;51.978;4.498;2023-02-04T12:59:46;103741.03;;;8.31;100.00
69784;BME280;57054;51.978;4.498;2023-02-04T13:02:11;103745.41;;;8.32;100.00